createdAt,value
2023-03-05T00:02:17.792Z,4.43
2023-03-05T00:05:20.115Z,3.92
2023-03-05T00:08:22.460Z,4.53
2023-03-05T00:11:28.157Z,5.03
2023-03-05T00:14:30.495Z,5.07
2023-03-05T00:17:32.804Z,4.78
2023-03-05T00:20:36.120Z,4.22
2023-03-05T00:23:38.479Z,4.10
2023-03-05T00:26:41.104Z,5.63
2023-03-05T00:29:43.449Z,4.50
2023-03-05T00:32:45.770Z,4.75
2023-03-05T00:35:48.982Z,4.97
2023-03-05T00:38:52.032Z,4.50
2023-03-05T00:41:54.402Z,4.03
2023-03-05T00:44:56.778Z,4.83
2023-03-05T00:48:01.358Z,4.13
2023-03-05T00:51:04.044Z,4.90
2023-03-05T00:54:06.921Z,4.28
2023-03-05T00:57:09.321Z,4.27
2023-03-05T01:00:12.817Z,4.27
2023-03-05T01:03:15.252Z,5.03
2023-03-05T01:06:18.044Z,4.68
2023-03-05T01:09:21.688Z,5.18
2023-03-05T01:12:24.192Z,4.43
2023-03-05T01:15:26.664Z,4.43
2023-03-05T01:18:29.271Z,4.38
2023-03-05T01:21:31.753Z,4.40
2023-03-05T01:24:34.090Z,4.30
2023-03-05T01:27:36.404Z,4.27
2023-03-05T01:30:38.729Z,4.57
2023-03-05T01:33:41.097Z,4.03
2023-03-05T01:36:43.718Z,3.97
2023-03-05T01:39:46.033Z,4.63
2023-03-05T01:42:58.633Z,4.20
2023-03-05T01:46:13.164Z,4.00
2023-03-05T01:49:21.490Z,3.47
2023-03-05T01:52:25.106Z,4.30
2023-03-05T01:55:29.810Z,4.50
2023-03-05T01:58:32.180Z,5.93
2023-03-05T02:01:40.130Z,4.60
2023-03-05T02:05:29.526Z,4.38
2023-03-05T02:08:31.883Z,4.25
2023-03-05T02:11:34.794Z,4.53
2023-03-05T02:14:37.844Z,5.13
2023-03-05T02:17:40.525Z,5.23
2023-03-05T02:20:50.798Z,3.55
2023-03-05T02:23:53.108Z,4.15
2023-03-05T02:26:56.640Z,3.78
2023-03-05T02:29:58.988Z,4.33
2023-03-05T02:33:01.829Z,5.13
2023-03-05T02:36:04.746Z,4.85
2023-03-05T02:39:07.381Z,3.53
2023-03-05T02:42:09.740Z,4.22
2023-03-05T02:45:13.502Z,4.60
2023-03-05T02:48:16.000Z,3.90
2023-03-05T02:51:18.947Z,4.13
2023-03-05T02:54:22.453Z,4.03
2023-03-05T02:57:25.043Z,3.78
2023-03-05T03:00:28.487Z,4.27
2023-03-05T03:03:31.155Z,4.33
2023-03-05T03:06:33.516Z,3.83
2023-03-05T03:09:36.139Z,3.97
2023-03-05T03:12:43.360Z,3.88
2023-03-05T03:15:45.721Z,4.07
2023-03-05T03:18:48.983Z,3.53
2023-03-05T03:21:51.430Z,4.13
2023-03-05T03:24:53.773Z,3.80
2023-03-05T03:27:56.137Z,3.63
2023-03-05T03:30:58.526Z,4.40
2023-03-05T03:34:00.968Z,3.77
2023-03-05T03:37:03.344Z,3.90
2023-03-05T03:40:06.820Z,3.83
2023-03-05T03:43:09.559Z,4.22
2023-03-05T03:46:11.969Z,4.03
2023-03-05T03:49:20.117Z,4.70
2023-03-05T03:52:23.135Z,3.80
2023-03-05T03:55:25.449Z,4.18
2023-03-05T03:58:27.779Z,3.67
2023-03-05T04:01:30.132Z,4.13
2023-03-05T04:04:32.486Z,3.87
2023-03-05T04:07:34.872Z,4.22
2023-03-05T04:10:37.380Z,3.90
2023-03-05T04:13:39.682Z,4.05
2023-03-05T04:16:41.994Z,5.50
2023-03-05T04:19:44.521Z,4.40
2023-03-05T04:22:46.901Z,3.15
2023-03-05T04:25:49.279Z,3.78
2023-03-05T04:28:51.597Z,3.58
2023-03-05T04:31:53.918Z,3.93
2023-03-05T04:34:57.182Z,3.40
2023-03-05T04:37:59.519Z,4.28
2023-03-05T04:41:01.838Z,3.75
2023-03-05T04:44:04.284Z,3.60
2023-03-05T04:47:06.657Z,3.40
2023-03-05T04:50:09.670Z,3.43
2023-03-05T04:53:12.132Z,4.20
2023-03-05T04:56:14.448Z,4.60
2023-03-05T04:59:16.850Z,4.68
2023-03-05T05:02:19.201Z,3.07
2023-03-05T05:05:24.472Z,3.97
2023-03-05T05:08:27.565Z,3.90
2023-03-05T05:11:29.934Z,3.83
2023-03-05T05:14:34.099Z,4.97
2023-03-05T05:17:36.714Z,3.67
2023-03-05T05:20:39.299Z,3.50
2023-03-05T05:23:41.840Z,4.00
2023-03-05T05:26:44.170Z,3.67
2023-03-05T05:29:50.293Z,3.65
2023-03-05T05:32:52.677Z,3.50
2023-03-05T05:35:55.049Z,4.27
2023-03-05T05:38:57.425Z,3.40
2023-03-05T05:41:59.731Z,3.13
2023-03-05T05:45:03.122Z,4.45
2023-03-05T05:48:05.671Z,3.53
2023-03-05T05:51:10.438Z,3.67
2023-03-05T05:54:16.220Z,4.53
2023-03-05T05:57:18.527Z,3.70
2023-03-05T06:00:21.302Z,4.25
2023-03-05T06:03:23.834Z,4.20
2023-03-05T06:06:27.170Z,3.33
2023-03-05T06:09:29.974Z,3.88
2023-03-05T06:12:32.322Z,2.90
2023-03-05T06:15:34.681Z,4.18
2023-03-05T06:18:37.003Z,5.00
2023-03-05T06:21:39.550Z,3.97
2023-03-05T06:24:41.925Z,3.38
2023-03-05T06:27:44.274Z,4.03
2023-03-05T06:30:46.689Z,3.80
2023-03-05T06:33:49.836Z,3.07
2023-03-05T06:36:52.229Z,4.63
2023-03-05T06:39:54.586Z,4.00
2023-03-05T06:42:56.898Z,4.03
2023-03-05T06:46:07.448Z,3.67
2023-03-05T06:49:10.549Z,3.57
2023-03-05T06:52:12.958Z,2.67
2023-03-05T06:55:15.400Z,3.42
2023-03-05T06:58:17.773Z,3.17
2023-03-05T07:01:20.599Z,3.25
2023-03-05T07:04:24.482Z,3.67
2023-03-05T07:07:26.919Z,3.73
2023-03-05T07:10:29.276Z,3.80
2023-03-05T07:13:31.653Z,3.22
2023-03-05T07:16:35.635Z,5.22
2023-03-05T07:19:38.434Z,3.57
2023-03-05T07:22:40.833Z,3.67
2023-03-05T07:25:43.242Z,4.20
2023-03-05T07:28:46.121Z,3.03
2023-03-05T07:31:48.434Z,4.10
2023-03-05T07:34:50.763Z,2.70
2023-03-05T07:37:54.963Z,3.23
2023-03-05T07:40:57.516Z,3.92
2023-03-05T07:44:00.077Z,3.45
2023-03-05T07:47:02.462Z,3.72
2023-03-05T07:50:05.333Z,4.47
2023-03-05T07:53:07.945Z,3.23
2023-03-05T07:56:10.676Z,4.28
2023-03-05T07:59:13.867Z,3.05
2023-03-05T08:02:16.566Z,3.95
2023-03-05T08:05:19.128Z,3.20
2023-03-05T08:08:21.490Z,3.97
2023-03-05T08:11:24.066Z,3.55
2023-03-05T08:14:26.652Z,2.97
2023-03-05T08:17:29.008Z,3.17
2023-03-05T08:20:31.524Z,3.33
2023-03-05T08:23:34.622Z,3.53
2023-03-05T08:26:41.166Z,2.80
2023-03-05T08:29:43.595Z,3.97
2023-03-05T08:32:45.939Z,3.13
2023-03-05T08:35:48.371Z,3.60
2023-03-05T08:38:50.949Z,3.73
2023-03-05T08:41:53.341Z,3.00
2023-03-05T08:44:55.763Z,2.97
2023-03-05T08:47:58.271Z,3.13
2023-03-05T08:51:12.840Z,3.00
2023-03-05T08:54:15.236Z,2.80
2023-03-05T08:57:17.604Z,2.92
2023-03-05T09:00:20.323Z,2.83
2023-03-05T09:03:22.841Z,2.72
2023-03-05T09:06:26.077Z,2.73
2023-03-05T09:09:30.158Z,2.20
2023-03-05T09:12:32.566Z,2.22
2023-03-05T09:15:34.923Z,2.20
2023-03-05T09:18:37.441Z,2.10
2023-03-05T09:21:39.838Z,2.30
2023-03-05T09:24:43.509Z,2.27
2023-03-05T09:27:45.926Z,2.88
2023-03-05T09:30:48.350Z,3.30
2023-03-05T09:33:50.854Z,2.00
2023-03-05T09:36:53.246Z,2.30
2023-03-05T09:39:56.293Z,2.10
2023-03-05T09:43:14.605Z,2.00
2023-03-05T09:46:31.454Z,2.25
2023-03-05T09:49:47.901Z,2.03
2023-03-05T09:53:01.906Z,2.37
2023-03-05T09:56:21.303Z,1.97
2023-03-05T09:59:29.671Z,2.15
2023-03-05T10:02:35.720Z,2.00
2023-03-05T10:06:03.186Z,1.63
2023-03-05T10:09:11.632Z,1.87
2023-03-05T10:12:42.395Z,1.57
2023-03-05T10:15:52.158Z,2.10
2023-03-05T10:19:00.347Z,2.28
2023-03-05T10:22:19.657Z,1.90
2023-03-05T10:25:47.730Z,2.43
2023-03-05T10:29:03.426Z,1.80
2023-03-05T10:32:18.987Z,2.92
2023-03-05T10:35:46.109Z,1.95
2023-03-05T10:39:19.560Z,2.22
2023-03-05T10:42:31.419Z,1.77
2023-03-05T10:45:40.700Z,1.80
2023-03-05T10:49:17.048Z,1.83
2023-03-05T10:52:32.731Z,1.80
2023-03-05T10:55:35.143Z,2.33
2023-03-05T10:58:37.641Z,1.73
2023-03-05T11:01:40.233Z,2.20
2023-03-05T11:04:43.062Z,1.90
2023-03-05T11:07:45.448Z,2.40
2023-03-05T11:10:47.938Z,1.63
2023-03-05T11:14:05.232Z,1.60
2023-03-05T11:18:03.431Z,1.60
2023-03-05T11:21:28.624Z,2.28
2023-03-05T11:24:31.100Z,1.92
2023-03-05T11:27:39.037Z,2.10
2023-03-05T11:30:41.566Z,1.73
2023-03-05T11:34:26.149Z,2.03
2023-03-05T11:37:30.958Z,2.00
2023-03-05T11:40:37.522Z,2.53
2023-03-05T11:43:41.688Z,2.70
2023-03-05T11:46:48.053Z,2.27
2023-03-05T11:49:55.079Z,1.87
2023-03-05T11:53:12.429Z,2.72
2023-03-05T11:56:20.634Z,2.35
2023-03-05T11:59:33.765Z,2.00
2023-03-05T12:02:37.252Z,2.20
2023-03-05T12:05:42.727Z,1.97
2023-03-05T12:08:49.845Z,3.00
2023-03-05T12:11:56.747Z,2.28
2023-03-05T12:15:25.461Z,2.97
2023-03-05T12:18:33.944Z,2.10
2023-03-05T12:21:38.202Z,2.23
2023-03-05T12:24:40.918Z,2.20
2023-03-05T12:27:43.652Z,2.17
2023-03-05T12:30:46.189Z,2.00
2023-03-05T12:33:48.575Z,2.07
2023-03-05T12:36:53.253Z,2.50
2023-03-05T12:40:04.740Z,3.53
2023-03-05T12:43:28.344Z,2.75
2023-03-05T12:46:35.865Z,1.92
2023-03-05T12:49:39.635Z,2.43
2023-03-05T12:52:42.696Z,2.53
2023-03-05T12:55:48.042Z,2.10
2023-03-05T12:58:52.535Z,2.97
2023-03-05T13:02:03.073Z,2.05
2023-03-05T13:05:17.966Z,3.27
2023-03-05T13:08:28.857Z,2.13
2023-03-05T13:11:34.481Z,1.77
2023-03-05T13:14:41.387Z,2.00
2023-03-05T13:18:07.458Z,1.60
2023-03-05T13:21:17.839Z,1.90
2023-03-05T13:24:20.485Z,1.63
2023-03-05T13:27:30.975Z,1.80
2023-03-05T13:30:34.719Z,1.65
2023-03-05T13:33:37.808Z,1.58
2023-03-05T13:36:40.327Z,1.50
2023-03-05T13:39:54.590Z,1.30
2023-03-05T13:43:12.112Z,1.42
2023-03-05T13:46:32.728Z,1.33
2023-03-05T13:49:35.379Z,1.38
2023-03-05T13:52:38.798Z,1.67
2023-03-05T13:55:41.460Z,1.43
2023-03-05T13:58:49.555Z,1.35
2023-03-05T14:01:52.847Z,1.42
2023-03-05T14:04:56.002Z,1.73
2023-03-05T14:07:58.717Z,1.20
2023-03-05T14:11:12.521Z,1.63
2023-03-05T14:14:17.919Z,1.40
2023-03-05T14:17:22.643Z,1.65
2023-03-05T14:20:29.859Z,1.77
2023-03-05T14:23:35.179Z,1.20
2023-03-05T14:26:58.013Z,1.27
2023-03-05T14:30:03.667Z,1.42
2023-03-05T14:33:06.301Z,1.20
2023-03-05T14:36:09.929Z,1.58
2023-03-05T14:39:26.387Z,1.30
2023-03-05T14:42:38.788Z,1.50
2023-03-05T14:45:43.790Z,0.93
2023-03-05T14:48:47.031Z,1.25
2023-03-05T14:51:49.546Z,1.42
2023-03-05T14:54:53.065Z,1.23
2023-03-05T14:58:00.332Z,1.73
2023-03-05T15:01:02.981Z,1.35
2023-03-05T15:04:05.371Z,1.67
2023-03-05T15:07:14.102Z,1.70
2023-03-05T15:10:19.473Z,3.10
2023-03-05T15:13:22.027Z,4.00
2023-03-05T15:16:24.489Z,2.88
2023-03-05T15:19:27.045Z,1.65
2023-03-05T15:22:29.579Z,2.00
2023-03-05T15:25:32.276Z,1.67
2023-03-05T15:28:36.909Z,2.10
2023-03-05T15:31:40.589Z,1.90
2023-03-05T15:34:43.384Z,1.75
2023-03-05T15:37:45.756Z,3.25
2023-03-05T15:40:49.067Z,2.73
2023-03-05T15:43:51.852Z,1.43
2023-03-05T15:46:56.662Z,1.73
2023-03-05T15:49:59.179Z,2.22
2023-03-05T15:53:01.567Z,2.10
2023-03-05T15:56:04.272Z,1.73
2023-03-05T15:59:07.883Z,1.70
2023-03-05T16:02:10.472Z,1.77
2023-03-05T16:05:13.032Z,1.65
2023-03-05T16:08:15.689Z,1.65
2023-03-05T16:11:19.251Z,1.53
2023-03-05T16:14:23.605Z,1.77
2023-03-05T16:17:26.208Z,1.63
2023-03-05T16:20:29.670Z,1.50
2023-03-05T16:23:32.299Z,2.05
2023-03-05T16:26:36.428Z,1.57
2023-03-05T16:29:38.976Z,1.50
2023-03-05T16:32:41.954Z,1.35
2023-03-05T16:35:45.623Z,1.70
2023-03-05T16:38:49.919Z,1.27
2023-03-05T16:41:52.850Z,1.30
2023-03-05T16:44:55.432Z,1.23
2023-03-05T16:47:58.306Z,1.75
2023-03-05T16:51:00.664Z,1.30
2023-03-05T16:54:03.703Z,1.45
2023-03-05T16:57:06.245Z,1.27
2023-03-05T17:00:11.583Z,1.27
2023-03-05T17:03:14.238Z,1.30
2023-03-05T17:06:19.669Z,1.60
2023-03-05T17:09:25.592Z,1.00
2023-03-05T17:12:27.973Z,0.90
2023-03-05T17:15:30.564Z,1.60
2023-03-05T17:18:33.616Z,1.17
2023-03-05T17:21:36.301Z,1.25
2023-03-05T17:24:42.754Z,1.15
2023-03-05T17:27:45.472Z,1.00
2023-03-05T17:30:48.009Z,1.30
2023-03-05T17:33:50.924Z,1.48
2023-03-05T17:36:53.267Z,1.40
2023-03-05T17:39:56.364Z,1.20
2023-03-05T17:42:58.849Z,1.20
2023-03-05T17:46:02.018Z,1.20
2023-03-05T17:49:04.679Z,1.08
2023-03-05T17:52:07.312Z,1.13
2023-03-05T17:55:11.765Z,1.13
2023-03-05T17:58:14.205Z,1.00
2023-03-05T18:01:43.078Z,1.83
2023-03-05T18:04:47.927Z,1.30
2023-03-05T18:07:51.462Z,1.20
2023-03-05T18:10:54.472Z,1.00
2023-03-05T18:13:57.116Z,1.30
2023-03-05T18:17:00.389Z,1.30
2023-03-05T18:20:04.319Z,1.30
2023-03-05T18:23:06.904Z,0.98
2023-03-05T18:26:09.435Z,1.23
2023-03-05T18:29:11.932Z,1.60
2023-03-05T18:32:14.498Z,1.83
2023-03-05T18:35:17.963Z,1.83
2023-03-05T18:38:25.395Z,1.85
2023-03-05T18:41:28.447Z,2.47
2023-03-05T18:44:31.076Z,2.90
2023-03-05T18:47:34.006Z,2.10
2023-03-05T18:50:36.543Z,2.78
2023-03-05T18:53:39.239Z,2.53
2023-03-05T18:56:42.215Z,2.35
2023-03-05T18:59:44.810Z,2.13
2023-03-05T19:02:47.481Z,2.17
2023-03-05T19:05:51.225Z,1.70
2023-03-05T19:09:08.738Z,1.90
2023-03-05T19:12:14.459Z,1.67
2023-03-05T19:15:17.355Z,1.80
2023-03-05T19:18:28.054Z,1.47
2023-03-05T19:21:59.891Z,1.88
2023-03-05T19:25:02.947Z,2.00
2023-03-05T19:28:05.486Z,1.75
2023-03-05T19:31:08.630Z,1.27
2023-03-05T19:34:11.245Z,1.10
2023-03-05T19:37:14.238Z,1.73
2023-03-05T19:40:16.949Z,1.25
2023-03-05T19:43:19.396Z,1.25
2023-03-05T19:46:22.090Z,1.10
2023-03-05T19:49:24.601Z,1.40
2023-03-05T19:52:27.706Z,1.20
2023-03-05T19:55:30.249Z,1.00
2023-03-05T19:58:34.413Z,1.73
2023-03-05T20:01:37.380Z,1.00
2023-03-05T20:04:41.512Z,1.10
2023-03-05T20:07:44.086Z,1.08
2023-03-05T20:10:46.640Z,0.90
2023-03-05T20:13:49.575Z,0.75
2023-03-05T20:16:52.208Z,1.17
2023-03-05T20:19:58.969Z,0.70
2023-03-05T20:23:02.057Z,0.82
2023-03-05T20:26:06.767Z,0.90
2023-03-05T20:29:09.637Z,1.08
2023-03-05T20:32:12.268Z,1.00
2023-03-05T20:35:17.533Z,0.80
2023-03-05T20:38:21.670Z,0.85
2023-03-05T20:41:24.382Z,1.15
2023-03-05T20:44:26.922Z,1.00
2023-03-05T20:47:47.062Z,0.87
2023-03-05T20:50:49.729Z,1.60
2023-03-05T20:53:54.313Z,1.60
2023-03-05T20:56:56.896Z,1.50
2023-03-05T21:00:00.463Z,1.30
2023-03-05T21:03:03.193Z,1.93
2023-03-05T21:06:06.425Z,2.03
2023-03-05T21:09:08.960Z,1.50
2023-03-05T21:12:11.521Z,2.60
2023-03-05T21:15:16.726Z,1.50
2023-03-05T21:18:19.279Z,2.27
2023-03-05T21:21:21.641Z,2.30
2023-03-05T21:25:25.220Z,2.00
2023-03-05T21:28:28.832Z,1.63
2023-03-05T21:31:31.262Z,1.27
2023-03-05T21:34:33.881Z,1.20
2023-03-05T21:37:42.449Z,1.43
2023-03-05T21:40:47.398Z,1.58
2023-03-05T21:43:49.861Z,1.80
2023-03-05T21:46:52.286Z,1.80
2023-03-05T21:49:54.783Z,1.53
2023-03-05T21:52:58.980Z,2.00
2023-03-05T21:56:25.474Z,1.92
2023-03-05T21:59:28.011Z,1.42
2023-03-05T22:02:30.397Z,2.00
2023-03-05T22:05:32.720Z,2.50
2023-03-05T22:08:35.052Z,2.40
2023-03-05T22:11:37.462Z,2.28
2023-03-05T22:14:39.828Z,2.70
2023-03-05T22:17:42.122Z,2.75
2023-03-05T22:20:44.990Z,3.00
2023-03-05T22:23:47.758Z,3.17
2023-03-05T22:26:50.103Z,3.10
2023-03-05T22:29:52.458Z,2.65
2023-03-05T22:32:54.885Z,2.00
2023-03-05T22:35:57.393Z,1.70
2023-03-05T22:38:59.758Z,1.60
2023-03-05T22:42:02.170Z,1.23
2023-03-05T22:45:05.072Z,1.80
2023-03-05T22:48:11.086Z,1.33
2023-03-05T22:51:13.826Z,1.77
2023-03-05T22:54:16.201Z,1.20
2023-03-05T22:57:18.722Z,1.20
2023-03-05T23:00:23.745Z,1.00
2023-03-05T23:03:26.696Z,1.17
2023-03-05T23:06:29.260Z,1.00
2023-03-05T23:09:31.609Z,0.90
2023-03-05T23:12:36.030Z,1.35
2023-03-05T23:15:39.206Z,1.00
2023-03-05T23:18:41.538Z,1.70
2023-03-05T23:21:43.887Z,1.57
2023-03-05T23:24:46.866Z,1.43
2023-03-05T23:27:49.832Z,1.92
2023-03-05T23:30:52.192Z,1.40
2023-03-05T23:33:54.558Z,1.85
2023-03-05T23:36:56.936Z,1.87
2023-03-05T23:39:59.676Z,1.20
2023-03-05T23:43:02.436Z,1.80
2023-03-05T23:46:10.792Z,1.50
2023-03-05T23:49:13.144Z,1.10
2023-03-05T23:52:15.518Z,2.20
2023-03-05T23:55:23.010Z,2.17
2023-03-05T23:58:25.639Z,2.72
